createdAt,value
2022-07-27T00:02:02.240Z,100421.03
2022-07-27T00:07:05.024Z,100413.72
2022-07-27T00:12:07.648Z,100419.25
2022-07-27T00:17:10.360Z,100422.66
2022-07-27T00:22:12.981Z,100426.00
2022-07-27T00:27:15.662Z,100441.03
2022-07-27T00:32:18.330Z,100413.84
2022-07-27T00:37:20.978Z,100439.00
2022-07-27T00:42:28.443Z,100441.50
2022-07-27T00:47:31.524Z,100448.66
2022-07-27T00:52:34.875Z,100461.28
2022-07-27T00:57:58.262Z,100443.88
2022-07-27T01:03:02.474Z,100431.63
2022-07-27T01:08:14.467Z,100445.69
2022-07-27T01:13:17.803Z,100453.63
2022-07-27T01:18:28.479Z,100451.00
2022-07-27T01:23:34.754Z,100442.38
2022-07-27T01:28:37.347Z,100453.16
2022-07-27T01:33:39.837Z,100440.81
2022-07-27T01:38:42.797Z,100447.47
2022-07-27T01:43:46.476Z,100425.97
2022-07-27T01:48:48.997Z,100439.25
2022-07-27T01:53:51.649Z,100427.84
2022-07-27T01:58:55.329Z,100431.22
2022-07-27T02:03:57.969Z,100429.38
2022-07-27T02:09:01.791Z,100433.16
2022-07-27T02:14:04.343Z,100438.66
2022-07-27T02:19:07.003Z,100430.28
2022-07-27T02:24:11.494Z,100438.75
2022-07-27T02:29:14.302Z,100433.31
2022-07-27T02:34:17.985Z,100430.88
2022-07-27T02:39:20.627Z,100436.06
2022-07-27T02:44:23.265Z,100442.09
2022-07-27T02:49:25.923Z,100446.50
2022-07-27T02:54:29.549Z,100450.03
2022-07-27T02:59:32.261Z,100457.09
2022-07-27T03:04:35.142Z,100447.28
2022-07-27T03:09:38.099Z,100456.19
2022-07-27T03:14:40.555Z,100453.66
2022-07-27T03:19:43.031Z,100447.97
2022-07-27T03:24:46.750Z,100455.56
2022-07-27T03:29:49.649Z,100468.38
2022-07-27T03:34:52.434Z,100460.66
2022-07-27T03:39:55.030Z,100460.63
2022-07-27T03:44:58.392Z,100468.41
2022-07-27T03:50:01.342Z,100466.34
2022-07-27T03:55:04.460Z,100478.28
2022-07-27T04:00:09.010Z,100477.81
2022-07-27T04:05:12.188Z,100479.97
2022-07-27T04:10:14.798Z,100487.91
2022-07-27T04:15:19.346Z,100488.16
2022-07-27T04:20:22.452Z,100481.25
2022-07-27T04:25:25.256Z,100477.34
2022-07-27T04:30:27.964Z,100471.47
2022-07-27T04:35:30.971Z,100471.66
2022-07-27T04:40:34.956Z,100472.19
2022-07-27T04:45:37.940Z,100477.16
2022-07-27T04:50:41.815Z,100487.94
2022-07-27T04:55:46.589Z,100472.38
2022-07-27T05:00:49.351Z,100481.66
2022-07-27T05:05:52.260Z,100473.69
2022-07-27T05:10:54.942Z,100482.59
2022-07-27T05:15:57.816Z,100474.00
2022-07-27T05:21:00.705Z,100479.50
2022-07-27T05:26:03.597Z,100487.91
2022-07-27T05:31:06.070Z,100483.47
2022-07-27T05:36:08.808Z,100485.66
2022-07-27T05:41:11.250Z,100488.53
2022-07-27T05:46:14.493Z,100491.41
2022-07-27T05:51:17.506Z,100501.44
2022-07-27T05:56:20.830Z,100495.09
2022-07-27T06:01:24.973Z,100495.59
2022-07-27T06:06:46.559Z,100492.38
2022-07-27T06:11:49.128Z,100485.72
2022-07-27T06:16:51.921Z,100491.13
2022-07-27T06:21:54.610Z,100498.25
2022-07-27T06:26:57.545Z,100503.28
2022-07-27T06:32:00.266Z,100509.06
2022-07-27T06:37:04.378Z,100506.06
2022-07-27T06:42:07.023Z,100499.09
2022-07-27T06:47:09.607Z,100497.72
2022-07-27T06:52:12.287Z,100489.78
2022-07-27T06:57:15.810Z,100505.31
2022-07-27T07:02:19.625Z,100488.75
2022-07-27T07:07:22.453Z,100504.47
2022-07-27T07:12:25.866Z,100502.38
2022-07-27T07:17:29.180Z,100504.44
2022-07-27T07:22:34.460Z,100503.63
2022-07-27T07:27:37.111Z,100501.41
2022-07-27T07:32:39.897Z,100509.44
2022-07-27T07:37:42.567Z,100510.88
2022-07-27T07:42:49.030Z,100506.19
2022-07-27T07:47:52.167Z,100516.25
2022-07-27T07:52:55.435Z,100520.09
2022-07-27T07:58:00.080Z,100526.88
2022-07-27T08:03:04.382Z,100526.94
2022-07-27T08:08:06.999Z,100525.88
2022-07-27T08:13:10.140Z,100525.09
2022-07-27T08:18:12.702Z,100527.00
2022-07-27T08:23:15.356Z,100527.50
2022-07-27T08:28:18.028Z,100526.72
2022-07-27T08:33:21.108Z,100525.81
2022-07-27T08:38:24.562Z,100530.66
2022-07-27T08:43:27.208Z,100522.72
2022-07-27T08:48:31.911Z,100534.63
2022-07-27T08:53:53.476Z,100541.78
2022-07-27T08:58:57.761Z,100533.47
2022-07-27T09:04:00.476Z,100533.06
2022-07-27T09:09:03.230Z,100522.44
2022-07-27T09:14:08.211Z,100533.06
2022-07-27T09:19:11.888Z,100524.72
2022-07-27T09:24:44.463Z,100527.28
2022-07-27T09:29:39.530Z,100527.88
2022-07-27T09:34:44.047Z,100530.78
2022-07-27T09:39:47.039Z,100532.69
2022-07-27T09:44:53.583Z,100537.13
2022-07-27T09:50:20.702Z,100525.13
2022-07-27T09:55:23.265Z,100521.00
2022-07-27T10:00:27.319Z,100536.72
2022-07-27T10:05:30.051Z,100526.88
2022-07-27T10:10:33.222Z,100530.25
2022-07-27T10:15:36.591Z,100540.34
2022-07-27T10:20:47.517Z,100538.13
2022-07-27T10:26:42.596Z,100541.78
2022-07-27T10:31:54.169Z,100542.09
2022-07-27T10:36:57.608Z,100544.34
2022-07-27T10:42:19.951Z,100545.69
2022-07-27T10:47:36.847Z,100532.63
2022-07-27T10:53:09.352Z,100532.19
2022-07-27T10:58:14.178Z,100533.91
2022-07-27T11:03:27.268Z,100533.63
2022-07-27T11:08:40.916Z,100520.53
2022-07-27T11:13:58.212Z,100524.59
2022-07-27T11:19:07.037Z,100516.56
2022-07-27T11:24:15.189Z,100535.22
2022-07-27T11:29:20.787Z,100532.91
2022-07-27T11:34:32.014Z,100521.50
2022-07-27T11:39:59.280Z,100513.72
2022-07-27T11:44:58.309Z,100509.47
2022-07-27T11:50:12.289Z,100497.28
2022-07-27T11:55:15.343Z,100486.22
2022-07-27T12:00:18.753Z,100493.31
2022-07-27T12:05:21.444Z,100508.53
2022-07-27T12:10:24.207Z,100510.91
2022-07-27T12:15:45.287Z,100500.31
2022-07-27T12:20:50.398Z,100496.53
2022-07-27T12:25:54.739Z,100495.44
2022-07-27T12:30:57.917Z,100490.09
2022-07-27T12:36:01.463Z,100492.84
2022-07-27T12:41:04.314Z,100492.66
2022-07-27T12:46:15.884Z,100505.81
2022-07-27T12:51:26.099Z,100508.13
2022-07-27T12:56:29.276Z,100483.06
2022-07-27T13:01:32.768Z,100505.69
2022-07-27T13:06:35.862Z,100499.69
2022-07-27T13:11:38.681Z,100505.81
2022-07-27T13:16:41.627Z,100506.59
2022-07-27T13:21:44.513Z,100502.81
2022-07-27T13:26:49.741Z,100500.81
2022-07-27T13:31:57.314Z,100507.44
2022-07-27T13:37:00.323Z,100498.00
2022-07-27T13:42:02.830Z,100514.81
2022-07-27T13:47:06.998Z,100494.22
2022-07-27T13:52:12.431Z,100516.59
2022-07-27T13:57:15.157Z,100519.44
2022-07-27T14:02:20.515Z,100497.75
2022-07-27T14:07:28.403Z,100514.97
2022-07-27T14:12:31.233Z,100510.75
2022-07-27T14:17:34.005Z,100506.13
2022-07-27T14:22:36.875Z,100517.88
2022-07-27T14:27:39.763Z,100502.72
2022-07-27T14:32:42.386Z,100522.25
2022-07-27T14:37:44.925Z,100526.00
2022-07-27T14:42:47.897Z,100528.94
2022-07-27T14:47:51.358Z,100524.97
2022-07-27T14:52:54.082Z,100516.16
2022-07-27T14:57:56.677Z,100527.81
2022-07-27T15:02:59.302Z,100539.63
2022-07-27T15:08:02.022Z,100535.25
2022-07-27T15:15:48.815Z,100528.09
2022-07-27T15:20:51.673Z,100536.47
2022-07-27T15:25:54.761Z,100524.56
2022-07-27T15:30:57.358Z,100528.91
2022-07-27T15:36:00.389Z,100537.50
2022-07-27T15:41:03.099Z,100530.41
2022-07-27T15:46:08.718Z,100537.19
2022-07-27T15:51:13.052Z,100536.78
2022-07-27T15:56:16.254Z,100521.03
2022-07-27T16:01:21.043Z,100532.44
2022-07-27T16:06:24.303Z,100543.41
2022-07-27T16:11:27.589Z,100545.94
2022-07-27T16:16:33.197Z,100541.06
2022-07-27T16:21:55.133Z,100541.72
2022-07-27T16:26:58.917Z,100550.00
2022-07-27T16:32:03.277Z,100538.47
2022-07-27T16:37:05.901Z,100545.38
2022-07-27T16:42:08.689Z,100553.16
2022-07-27T16:47:11.314Z,100555.25
2022-07-27T16:52:14.066Z,100555.91
2022-07-27T16:57:16.505Z,100553.75
2022-07-27T17:02:19.252Z,100553.91
2022-07-27T17:07:22.623Z,100564.69
2022-07-27T17:12:38.109Z,100574.63
2022-07-27T17:17:42.511Z,100582.09
2022-07-27T17:22:45.325Z,100575.38
2022-07-27T17:27:49.091Z,100584.34
2022-07-27T17:32:54.604Z,100587.78
2022-07-27T17:38:06.225Z,100578.03
2022-07-27T17:43:09.593Z,100587.94
2022-07-27T17:48:12.391Z,100596.34
2022-07-27T17:53:15.056Z,100605.53
2022-07-27T17:58:17.788Z,100606.81
2022-07-27T18:03:22.018Z,100605.53
2022-07-27T18:08:25.246Z,100612.84
2022-07-27T18:13:39.424Z,100610.19
2022-07-27T18:18:45.923Z,100610.72
2022-07-27T18:23:48.715Z,100626.31
2022-07-27T18:28:52.830Z,100623.38
2022-07-27T18:33:56.156Z,100633.09
2022-07-27T18:38:58.769Z,100624.88
2022-07-27T18:44:01.353Z,100634.72
2022-07-27T18:49:04.033Z,100638.25
2022-07-27T18:54:07.390Z,100643.06
2022-07-27T18:59:10.549Z,100651.63
2022-07-27T19:04:15.740Z,100657.59
2022-07-27T19:09:19.120Z,100679.88
2022-07-27T19:14:23.278Z,100692.31
2022-07-27T19:19:26.115Z,100689.72
2022-07-27T19:24:29.267Z,100701.28
2022-07-27T19:29:32.772Z,100705.63
2022-07-27T19:34:36.329Z,100707.72
2022-07-27T19:40:02.468Z,100718.16
2022-07-27T19:45:02.513Z,100719.44
2022-07-27T19:50:05.720Z,100716.34
2022-07-27T19:55:09.169Z,100723.19
2022-07-27T20:00:12.415Z,100724.69
2022-07-27T20:05:15.203Z,100723.09
2022-07-27T20:10:18.706Z,100713.66
2022-07-27T20:15:22.464Z,100713.03
2022-07-27T20:20:25.621Z,100707.81
2022-07-27T20:25:29.039Z,100701.97
2022-07-27T20:30:32.704Z,100715.06
2022-07-27T20:35:37.710Z,100712.59
2022-07-27T20:40:41.191Z,100709.66
2022-07-27T20:45:44.533Z,100723.03
2022-07-27T20:50:48.695Z,100713.44
2022-07-27T20:55:52.358Z,100726.72
2022-07-27T21:00:55.480Z,100720.19
2022-07-27T21:05:58.435Z,100725.50
2022-07-27T21:11:02.174Z,100726.94
2022-07-27T21:16:05.543Z,100729.31
2022-07-27T21:21:08.162Z,100733.88
2022-07-27T21:26:11.573Z,100749.09
2022-07-27T21:31:18.287Z,100749.50
2022-07-27T21:36:21.092Z,100749.31
2022-07-27T21:41:23.620Z,100758.25
2022-07-27T21:46:26.731Z,100762.63
2022-07-27T21:51:29.532Z,100758.44
2022-07-27T21:56:41.770Z,100772.94
2022-07-27T22:01:45.723Z,100776.41
2022-07-27T22:06:48.342Z,100791.84
2022-07-27T22:11:51.031Z,100786.47
2022-07-27T22:16:53.622Z,100796.56
2022-07-27T22:21:57.314Z,100756.03
2022-07-27T22:26:59.840Z,100797.00
2022-07-27T22:32:02.571Z,100790.78
2022-07-27T22:37:05.979Z,100799.34
2022-07-27T22:42:10.285Z,100798.50
2022-07-27T22:47:12.770Z,100800.78
2022-07-27T22:52:15.430Z,100800.16
2022-07-27T22:57:18.311Z,100804.75
2022-07-27T23:02:21.049Z,100794.03
2022-07-27T23:07:24.008Z,100810.59
2022-07-27T23:12:26.589Z,100809.56
2022-07-27T23:17:29.448Z,100811.88
2022-07-27T23:22:32.863Z,100808.88
2022-07-27T23:27:37.166Z,100818.22
2022-07-27T23:32:40.278Z,100817.06
2022-07-27T23:37:44.574Z,100819.09
2022-07-27T23:42:48.347Z,100820.41
2022-07-27T23:47:51.266Z,100816.91
2022-07-27T23:52:55.200Z,100814.41
2022-07-27T23:57:57.685Z,100805.22
